createdAt,value
2022-08-28T00:00:28.777Z,18.15
2022-08-28T00:02:55.816Z,15.88
2022-08-28T00:05:25.504Z,17.67
2022-08-28T00:07:52.358Z,18.15
2022-08-28T00:10:22.345Z,16.30
2022-08-28T00:12:51.247Z,23.80
2022-08-28T00:15:23.688Z,17.27
2022-08-28T00:17:50.819Z,22.92
2022-08-28T00:20:20.584Z,15.93
2022-08-28T00:22:48.487Z,17.58
2022-08-28T00:25:16.689Z,20.85
2022-08-28T00:27:52.504Z,17.95
2022-08-28T00:30:22.848Z,19.40
2022-08-28T00:32:49.950Z,18.05
2022-08-28T00:35:17.736Z,16.58
2022-08-28T00:37:46.384Z,17.25
2022-08-28T00:40:18.498Z,17.00
2022-08-28T00:42:56.193Z,20.02
2022-08-28T00:45:25.235Z,21.77
2022-08-28T00:47:52.323Z,21.17
2022-08-28T00:50:24.345Z,19.13
2022-08-28T00:52:56.934Z,18.90
2022-08-28T00:55:27.273Z,17.90
2022-08-28T00:57:58.963Z,18.95
2022-08-28T01:00:33.699Z,21.83
2022-08-28T01:03:01.157Z,17.35
2022-08-28T01:05:28.959Z,18.30
2022-08-28T01:07:58.706Z,17.30
2022-08-28T01:10:28.865Z,16.25
2022-08-28T01:12:57.878Z,17.30
2022-08-28T01:15:28.324Z,17.55
2022-08-28T01:18:03.529Z,15.80
2022-08-28T01:20:35.682Z,17.90
2022-08-28T01:23:06.903Z,17.95
2022-08-28T01:25:36.525Z,17.15
2022-08-28T01:28:06.582Z,17.15
2022-08-28T01:30:33.679Z,19.35
2022-08-28T01:33:00.808Z,17.40
2022-08-28T01:35:33.532Z,17.65
2022-08-28T01:38:00.570Z,20.60
2022-08-28T01:44:34.196Z,17.70
2022-08-28T01:47:00.885Z,16.75
2022-08-28T01:49:29.349Z,17.42
2022-08-28T01:51:57.215Z,17.20
2022-08-28T01:54:25.329Z,21.08
2022-08-28T01:56:52.518Z,16.50
2022-08-28T01:59:19.282Z,15.18
2022-08-28T02:01:46.064Z,16.20
2022-08-28T02:04:13.340Z,17.50
2022-08-28T02:06:41.195Z,15.70
2022-08-28T02:09:11.593Z,18.13
2022-08-28T02:11:46.320Z,16.48
2022-08-28T02:14:13.851Z,23.98
2022-08-28T02:16:40.563Z,23.08
2022-08-28T02:19:07.295Z,20.02
2022-08-28T02:21:35.435Z,22.67
2022-08-28T02:24:02.241Z,18.05
2022-08-28T02:26:30.278Z,19.67
2022-08-28T02:28:58.616Z,18.65
2022-08-28T02:31:26.185Z,20.48
2022-08-28T02:33:53.336Z,19.58
2022-08-28T02:36:22.945Z,20.90
2022-08-28T02:38:55.346Z,21.67
2022-08-28T02:41:24.756Z,17.85
2022-08-28T02:43:52.265Z,18.80
2022-08-28T02:46:18.992Z,18.70
2022-08-28T02:48:45.776Z,18.33
2022-08-28T02:51:13.968Z,17.95
2022-08-28T02:53:41.797Z,17.25
2022-08-28T02:56:09.768Z,17.70
2022-08-28T02:58:36.626Z,18.23
2022-08-28T03:01:06.942Z,15.02
2022-08-28T03:03:33.983Z,27.83
2022-08-28T03:06:03.215Z,26.98
2022-08-28T03:08:31.973Z,20.10
2022-08-28T03:10:59.761Z,19.65
2022-08-28T03:13:27.483Z,26.83
2022-08-28T03:15:55.860Z,23.00
2022-08-28T03:18:24.370Z,26.83
2022-08-28T03:20:52.621Z,23.60
2022-08-28T03:23:28.634Z,20.80
2022-08-28T03:26:10.965Z,25.20
2022-08-28T03:28:45.898Z,25.85
2022-08-28T03:31:19.559Z,23.02
2022-08-28T03:33:47.568Z,32.50
2022-08-28T03:36:17.251Z,37.35
2022-08-28T03:38:44.035Z,34.13
2022-08-28T03:41:13.055Z,30.40
2022-08-28T03:43:40.353Z,33.25
2022-08-28T03:46:08.093Z,28.52
2022-08-28T03:48:37.167Z,30.63
2022-08-28T03:51:13.469Z,30.77
2022-08-28T03:53:40.684Z,26.45
2022-08-28T03:56:13.374Z,28.77
2022-08-28T03:58:41.610Z,27.90
2022-08-28T04:01:08.838Z,26.70
2022-08-28T04:03:36.817Z,31.52
2022-08-28T04:06:04.296Z,36.60
2022-08-28T04:08:31.100Z,23.67
2022-08-28T04:10:59.530Z,31.30
2022-08-28T04:13:26.944Z,38.38
2022-08-28T04:16:10.591Z,30.33
2022-08-28T04:18:40.079Z,31.63
2022-08-28T04:21:12.978Z,28.58
2022-08-28T04:23:43.230Z,35.60
2022-08-28T04:26:12.515Z,33.30
2022-08-28T04:28:39.270Z,34.72
2022-08-28T04:31:07.640Z,30.88
2022-08-28T04:33:35.808Z,40.83
2022-08-28T04:36:09.189Z,26.35
2022-08-28T04:38:40.428Z,31.98
2022-08-28T04:41:12.837Z,29.38
2022-08-28T04:43:39.718Z,30.70
2022-08-28T04:46:09.405Z,31.55
2022-08-28T04:48:36.922Z,29.10
2022-08-28T04:51:07.129Z,32.58
2022-08-28T04:53:34.287Z,32.80
2022-08-28T04:56:04.951Z,32.88
2022-08-28T04:58:33.445Z,36.92
2022-08-28T05:01:11.281Z,29.13
2022-08-28T05:03:38.291Z,36.25
2022-08-28T05:06:05.358Z,29.45
2022-08-28T05:08:32.301Z,45.30
2022-08-28T05:11:33.359Z,35.00
2022-08-28T05:14:04.380Z,37.55
2022-08-28T05:16:32.031Z,27.98
2022-08-28T05:19:03.081Z,31.00
2022-08-28T05:21:29.842Z,29.58
2022-08-28T05:23:58.034Z,28.20
2022-08-28T05:26:26.797Z,27.15
2022-08-28T05:28:55.521Z,31.77
2022-08-28T05:31:23.346Z,30.60
2022-08-28T05:33:51.797Z,27.02
2022-08-28T05:36:20.078Z,29.17
2022-08-28T05:38:46.928Z,34.08
2022-08-28T05:41:20.618Z,31.45
2022-08-28T05:43:48.057Z,27.05
2022-08-28T05:46:16.156Z,25.40
2022-08-28T05:48:44.155Z,27.70
2022-08-28T05:51:14.522Z,25.83
2022-08-28T05:53:43.257Z,26.40
2022-08-28T05:56:16.935Z,27.90
2022-08-28T05:58:43.668Z,26.83
2022-08-28T06:01:15.319Z,26.30
2022-08-28T06:03:44.959Z,27.10
2022-08-28T06:06:12.490Z,23.35
2022-08-28T06:08:56.339Z,27.15
2022-08-28T06:11:26.890Z,21.77
2022-08-28T06:13:53.749Z,22.38
2022-08-28T06:16:20.801Z,34.97
2022-08-28T06:18:47.973Z,27.67
2022-08-28T06:21:14.763Z,22.48
2022-08-28T06:23:41.460Z,25.42
2022-08-28T06:26:08.257Z,26.17
2022-08-28T06:28:35.041Z,24.98
2022-08-28T06:31:23.177Z,27.75
2022-08-28T06:33:50.835Z,25.60
2022-08-28T06:36:17.552Z,23.58
2022-08-28T06:38:46.636Z,22.65
2022-08-28T06:41:15.419Z,24.77
2022-08-28T06:43:42.502Z,26.08
2022-08-28T06:46:09.334Z,25.13
2022-08-28T06:48:36.328Z,20.58
2022-08-28T06:51:06.990Z,20.73
2022-08-28T06:53:33.945Z,25.50
2022-08-28T06:56:07.169Z,24.88
2022-08-28T06:58:36.948Z,27.35
2022-08-28T07:01:14.369Z,25.02
2022-08-28T07:03:42.677Z,21.98
2022-08-28T07:06:13.302Z,26.17
2022-08-28T07:08:41.604Z,25.52
2022-08-28T07:11:14.293Z,26.00
2022-08-28T07:13:42.247Z,24.10
2022-08-28T07:16:09.745Z,25.00
2022-08-28T07:18:37.081Z,23.52
2022-08-28T07:21:03.900Z,24.25
2022-08-28T07:23:32.699Z,27.85
2022-08-28T07:26:00.343Z,31.75
2022-08-28T07:28:27.088Z,21.38
2022-08-28T07:30:59.149Z,26.23
2022-08-28T07:33:27.659Z,27.15
2022-08-28T07:35:55.439Z,23.60
2022-08-28T07:38:22.343Z,23.80
2022-08-28T07:40:49.056Z,21.42
2022-08-28T07:43:34.347Z,22.80
2022-08-28T07:46:07.056Z,20.65
2022-08-28T07:48:35.415Z,24.48
2022-08-28T07:51:04.293Z,24.95
2022-08-28T07:53:35.756Z,23.95
2022-08-28T07:56:04.362Z,24.38
2022-08-28T07:58:31.291Z,23.85
2022-08-28T08:00:58.487Z,21.02
2022-08-28T08:03:25.747Z,24.98
2022-08-28T08:06:02.165Z,24.55
2022-08-28T08:08:30.436Z,18.98
2022-08-28T08:11:06.706Z,22.27
2022-08-28T08:13:39.583Z,22.25
2022-08-28T08:16:21.239Z,21.25
2022-08-28T08:18:48.701Z,20.95
2022-08-28T08:21:17.247Z,21.02
2022-08-28T08:23:44.111Z,17.33
2022-08-28T08:26:14.703Z,20.65
2022-08-28T08:28:42.453Z,18.65
2022-08-28T08:31:16.331Z,18.60
2022-08-28T08:33:46.240Z,15.55
2022-08-28T08:36:16.113Z,17.00
2022-08-28T08:38:43.757Z,17.70
2022-08-28T08:41:20.095Z,16.83
2022-08-28T08:44:03.534Z,17.38
2022-08-28T08:46:43.664Z,16.45
2022-08-28T08:49:22.508Z,15.98
2022-08-28T08:52:00.163Z,17.58
2022-08-28T08:54:27.127Z,14.45
2022-08-28T08:56:56.189Z,16.77
2022-08-28T08:59:30.204Z,16.05
2022-08-28T09:02:10.476Z,16.50
2022-08-28T09:04:49.630Z,19.38
2022-08-28T09:07:16.284Z,13.82
2022-08-28T09:09:50.821Z,14.52
2022-08-28T09:12:23.092Z,14.82
2022-08-28T09:15:20.627Z,13.80
2022-08-28T09:17:54.720Z,16.33
2022-08-28T09:20:33.195Z,19.80
2022-08-28T09:23:00.257Z,16.42
2022-08-28T09:25:51.451Z,15.30
2022-08-28T09:28:21.401Z,12.93
2022-08-28T09:31:08.120Z,14.40
2022-08-28T09:33:42.068Z,13.98
2022-08-28T09:36:27.880Z,13.70
2022-08-28T09:39:07.086Z,13.32
2022-08-28T09:42:18.683Z,13.10
2022-08-28T09:47:46.142Z,12.40
2022-08-28T09:50:42.345Z,13.07
2022-08-28T09:53:09.003Z,13.65
2022-08-28T09:55:50.574Z,13.38
2022-08-28T09:58:18.829Z,12.93
2022-08-28T10:00:55.211Z,14.35
2022-08-28T10:03:35.839Z,12.25
2022-08-28T10:06:15.267Z,14.50
2022-08-28T10:09:09.783Z,11.70
2022-08-28T10:11:55.138Z,15.32
2022-08-28T10:14:38.112Z,13.77
2022-08-28T10:17:21.659Z,12.95
2022-08-28T10:20:16.651Z,11.82
2022-08-28T10:23:17.770Z,14.85
2022-08-28T10:26:08.580Z,10.32
2022-08-28T10:29:02.792Z,13.13
2022-08-28T10:31:32.747Z,12.27
2022-08-28T10:34:17.614Z,12.25
2022-08-28T10:36:50.851Z,13.57
2022-08-28T10:39:20.659Z,11.93
2022-08-28T10:42:00.665Z,12.23
2022-08-28T10:45:09.036Z,10.85
2022-08-28T10:47:39.328Z,12.57
2022-08-28T10:50:17.277Z,14.87
2022-08-28T10:52:53.725Z,13.05
2022-08-28T10:55:26.588Z,15.63
2022-08-28T10:57:58.518Z,13.93
2022-08-28T11:00:27.794Z,10.77
2022-08-28T11:03:02.456Z,12.70
2022-08-28T11:05:53.640Z,11.95
2022-08-28T11:10:56.047Z,10.13
2022-08-28T11:13:48.440Z,8.23
2022-08-28T11:19:00.453Z,10.98
2022-08-28T11:21:41.698Z,11.73
2022-08-28T11:27:00.331Z,11.95
2022-08-28T11:29:57.957Z,8.73
2022-08-28T11:32:55.539Z,8.80
2022-08-28T11:35:39.850Z,7.03
2022-08-28T11:38:06.942Z,8.48
2022-08-28T11:40:33.595Z,11.02
2022-08-28T11:43:16.193Z,6.43
2022-08-28T11:45:45.656Z,6.97
2022-08-28T11:48:28.263Z,8.23
2022-08-28T11:51:06.980Z,7.85
2022-08-28T11:54:03.549Z,5.78
2022-08-28T11:57:11.771Z,7.22
2022-08-28T12:00:10.583Z,9.40
2022-08-28T12:02:40.121Z,6.45
2022-08-28T12:05:11.729Z,7.30
2022-08-28T12:07:44.485Z,7.88
2022-08-28T12:10:34.094Z,6.88
2022-08-28T12:13:04.114Z,9.13
2022-08-28T12:15:31.167Z,8.25
2022-08-28T12:18:00.181Z,6.63
2022-08-28T12:20:41.226Z,6.45
2022-08-28T12:23:38.111Z,6.93
2022-08-28T12:26:07.909Z,5.90
2022-08-28T12:28:45.907Z,8.55
2022-08-28T12:32:08.793Z,6.63
2022-08-28T12:34:57.120Z,7.35
2022-08-28T12:37:51.973Z,6.82
2022-08-28T12:40:34.108Z,6.10
2022-08-28T12:43:07.713Z,7.80
2022-08-28T12:45:48.126Z,6.78
2022-08-28T12:48:17.407Z,8.75
2022-08-28T12:50:44.201Z,5.38
2022-08-28T12:53:17.724Z,8.63
2022-08-28T12:55:45.923Z,6.47
2022-08-28T12:58:26.738Z,12.35
2022-08-28T13:00:58.205Z,5.43
2022-08-28T13:03:25.533Z,5.57
2022-08-28T13:06:05.739Z,5.85
2022-08-28T13:08:34.212Z,6.30
2022-08-28T13:11:01.268Z,7.40
2022-08-28T13:13:46.513Z,5.70
2022-08-28T13:16:34.231Z,6.45
2022-08-28T13:19:04.217Z,5.28
2022-08-28T13:21:47.259Z,9.40
2022-08-28T13:24:27.203Z,8.63
2022-08-28T13:27:07.305Z,5.32
2022-08-28T13:29:35.275Z,7.32
2022-08-28T13:32:09.346Z,5.35
2022-08-28T13:34:38.627Z,6.43
2022-08-28T13:37:43.753Z,7.38
2022-08-28T13:40:30.105Z,5.40
2022-08-28T13:43:02.755Z,7.65
2022-08-28T13:45:32.688Z,5.15
2022-08-28T13:48:13.929Z,7.03
2022-08-28T13:50:46.595Z,6.13
2022-08-28T13:53:15.606Z,5.85
2022-08-28T13:55:42.397Z,4.93
2022-08-28T13:58:09.323Z,5.40
2022-08-28T14:00:40.953Z,7.40
2022-08-28T14:03:26.191Z,6.13
2022-08-28T14:05:53.310Z,5.85
2022-08-28T14:08:20.519Z,6.10
2022-08-28T14:10:47.728Z,5.78
2022-08-28T14:13:15.063Z,7.30
2022-08-28T14:15:41.936Z,8.57
2022-08-28T14:18:08.763Z,6.13
2022-08-28T14:20:37.677Z,5.68
2022-08-28T14:23:04.570Z,5.75
2022-08-28T14:25:33.776Z,6.32
2022-08-28T14:28:04.606Z,11.25
2022-08-28T14:30:31.383Z,4.10
2022-08-28T14:32:58.073Z,5.32
2022-08-28T14:35:24.821Z,5.75
2022-08-28T14:37:51.550Z,5.38
2022-08-28T14:40:18.406Z,7.15
2022-08-28T14:42:45.252Z,4.50
2022-08-28T14:45:12.154Z,6.70
2022-08-28T14:47:39.323Z,4.65
2022-08-28T14:50:06.703Z,4.78
2022-08-28T14:52:33.495Z,4.20
2022-08-28T14:55:00.319Z,5.00
2022-08-28T14:57:27.107Z,5.18
2022-08-28T14:59:53.850Z,5.28
2022-08-28T15:02:20.510Z,4.80
2022-08-28T15:04:47.198Z,5.25
2022-08-28T15:07:15.283Z,5.00
2022-08-28T15:09:43.115Z,4.72
2022-08-28T15:12:10.402Z,5.35
2022-08-28T15:14:37.386Z,6.13
2022-08-28T15:17:04.908Z,6.20
2022-08-28T15:19:31.777Z,7.45
2022-08-28T15:21:59.398Z,6.40
2022-08-28T15:24:30.853Z,4.65
2022-08-28T15:26:59.511Z,5.38
2022-08-28T15:29:30.224Z,3.95
2022-08-28T15:31:57.986Z,4.80
2022-08-28T15:34:28.384Z,4.90
2022-08-28T15:36:56.347Z,4.63
2022-08-28T15:39:47.124Z,6.13
2022-08-28T15:42:14.805Z,5.30
2022-08-28T15:44:42.387Z,6.80
2022-08-28T15:47:09.352Z,6.70
2022-08-28T15:49:41.529Z,4.85
2022-08-28T15:52:18.169Z,5.75
2022-08-28T15:54:44.902Z,5.05
2022-08-28T15:57:11.653Z,5.53
2022-08-28T15:59:48.903Z,4.10
2022-08-28T16:02:21.335Z,5.90
2022-08-28T16:04:48.710Z,5.65
2022-08-28T16:07:15.632Z,5.93
2022-08-28T16:09:42.520Z,4.63
2022-08-28T16:12:09.305Z,4.88
2022-08-28T16:14:36.212Z,4.68
2022-08-28T16:17:05.959Z,6.30
2022-08-28T16:19:39.776Z,5.20
2022-08-28T16:22:07.521Z,6.18
2022-08-28T16:24:34.763Z,6.20
2022-08-28T16:27:01.637Z,4.55
2022-08-28T16:29:28.574Z,4.78
2022-08-28T16:31:56.640Z,4.20
2022-08-28T16:34:26.090Z,4.80
2022-08-28T16:36:54.999Z,4.50
2022-08-28T16:39:21.677Z,4.18
2022-08-28T16:41:50.171Z,4.22
2022-08-28T16:44:21.989Z,5.63
2022-08-28T16:46:49.141Z,4.90
2022-08-28T16:49:15.976Z,4.60
2022-08-28T16:51:42.720Z,5.20
2022-08-28T16:54:09.429Z,4.57
2022-08-28T16:56:36.571Z,4.32
2022-08-28T16:59:04.165Z,5.18
2022-08-28T17:01:38.121Z,5.63
2022-08-28T17:04:09.469Z,6.18
2022-08-28T17:06:36.411Z,6.97
2022-08-28T17:09:03.339Z,4.80
2022-08-28T17:11:30.993Z,7.32
2022-08-28T17:13:58.740Z,7.28
2022-08-28T17:16:28.707Z,5.22
2022-08-28T17:18:55.760Z,5.10
2022-08-28T17:21:41.413Z,7.75
2022-08-28T17:24:12.258Z,4.72
2022-08-28T17:26:40.513Z,7.85
2022-08-28T17:29:07.442Z,5.25
2022-08-28T17:31:34.319Z,7.97
2022-08-28T17:34:01.114Z,6.22
2022-08-28T17:36:33.120Z,5.65
2022-08-28T17:39:05.683Z,5.35
2022-08-28T17:41:33.408Z,4.85
2022-08-28T17:44:01.329Z,4.57
2022-08-28T17:46:28.575Z,5.97
2022-08-28T17:48:56.291Z,4.25
2022-08-28T17:51:40.417Z,4.18
2022-08-28T17:54:13.859Z,8.32
2022-08-28T17:56:41.079Z,5.90
2022-08-28T17:59:07.868Z,4.72
2022-08-28T18:01:34.873Z,4.72
2022-08-28T18:04:01.720Z,5.55
2022-08-28T18:06:28.466Z,5.03
2022-08-28T18:08:55.162Z,8.50
2022-08-28T18:11:21.837Z,5.85
2022-08-28T18:13:48.519Z,5.50
2022-08-28T18:16:15.689Z,5.38
2022-08-28T18:18:42.812Z,5.03
2022-08-28T18:21:10.839Z,7.00
2022-08-28T18:23:39.473Z,5.72
2022-08-28T18:26:08.175Z,4.65
2022-08-28T18:28:34.902Z,5.45
2022-08-28T18:31:02.507Z,5.57
2022-08-28T18:33:29.637Z,5.28
2022-08-28T18:35:56.719Z,4.50
2022-08-28T18:38:27.719Z,5.30
2022-08-28T18:40:55.450Z,5.22
2022-08-28T18:43:23.563Z,5.35
2022-08-28T18:45:50.408Z,6.03
2022-08-28T18:48:18.360Z,6.28
2022-08-28T18:50:47.289Z,6.25
2022-08-28T18:53:15.491Z,5.45
2022-08-28T18:55:42.307Z,7.28
2022-08-28T18:58:10.354Z,9.35
2022-08-28T19:00:42.406Z,6.05
2022-08-28T19:03:09.536Z,9.77
2022-08-28T19:05:37.815Z,6.10
2022-08-28T19:08:04.819Z,7.10
2022-08-28T19:10:34.363Z,5.63
2022-08-28T19:13:02.885Z,6.32
2022-08-28T19:15:31.798Z,5.40
2022-08-28T19:18:00.329Z,5.38
2022-08-28T19:20:28.057Z,8.73
2022-08-28T19:22:56.211Z,6.10
2022-08-28T19:25:28.590Z,5.82
2022-08-28T19:27:58.978Z,6.03
2022-08-28T19:30:28.127Z,4.75
2022-08-28T19:32:55.354Z,5.20
2022-08-28T19:35:24.623Z,5.15
2022-08-28T19:37:52.688Z,6.43
2022-08-28T19:40:20.519Z,6.95
2022-08-28T19:42:49.681Z,7.40
2022-08-28T19:45:17.039Z,5.30
2022-08-28T19:47:44.034Z,6.40
2022-08-28T19:50:12.167Z,5.85
2022-08-28T19:52:39.259Z,7.45
2022-08-28T19:55:07.667Z,6.55
2022-08-28T19:57:34.961Z,5.60
2022-08-28T20:00:02.413Z,5.47
2022-08-28T20:02:31.059Z,7.55
2022-08-28T20:04:57.774Z,5.43
2022-08-28T20:07:24.988Z,6.75
2022-08-28T20:09:52.114Z,6.45
2022-08-28T20:12:19.059Z,5.38
2022-08-28T20:14:45.876Z,6.38
2022-08-28T20:17:12.608Z,5.70
2022-08-28T20:19:39.449Z,6.28
2022-08-28T20:22:06.240Z,6.38
2022-08-28T20:24:33.034Z,7.45
2022-08-28T20:26:59.776Z,6.68
2022-08-28T20:29:26.522Z,5.85
2022-08-28T20:31:54.093Z,5.63
2022-08-28T20:34:21.367Z,7.68
2022-08-28T20:36:48.593Z,7.00
2022-08-28T20:39:15.848Z,6.68
2022-08-28T20:41:44.282Z,7.13
2022-08-28T20:44:12.893Z,6.10
2022-08-28T20:46:41.983Z,5.57
2022-08-28T20:49:14.311Z,5.93
2022-08-28T20:52:15.732Z,5.55
2022-08-28T20:54:42.837Z,5.25
2022-08-28T20:57:11.927Z,7.57
2022-08-28T20:59:41.397Z,5.95
2022-08-28T21:02:19.711Z,5.88
2022-08-28T21:04:48.067Z,5.60
2022-08-28T21:07:19.881Z,7.53
2022-08-28T21:10:05.479Z,6.72
2022-08-28T21:12:33.781Z,5.35
2022-08-28T21:15:00.688Z,5.97
2022-08-28T21:17:29.448Z,7.43
2022-08-28T21:20:11.175Z,7.85
2022-08-28T21:22:38.279Z,6.78
2022-08-28T21:25:07.848Z,5.80
2022-08-28T21:27:35.370Z,6.43
2022-08-28T21:30:02.649Z,7.93
2022-08-28T21:32:30.921Z,4.93
2022-08-28T21:34:58.489Z,7.38
2022-08-28T21:37:25.228Z,6.15
2022-08-28T21:39:52.298Z,10.98
2022-08-28T21:42:20.762Z,6.25
2022-08-28T21:44:51.795Z,6.53
2022-08-28T21:47:21.258Z,6.53
2022-08-28T21:49:49.453Z,7.97
2022-08-28T21:52:18.497Z,5.75
2022-08-28T21:54:45.588Z,6.07
2022-08-28T21:57:12.317Z,8.88
2022-08-28T21:59:39.041Z,6.10
2022-08-28T22:02:06.066Z,7.28
2022-08-28T22:04:34.695Z,6.22
2022-08-28T22:07:01.780Z,6.25
2022-08-28T22:09:29.009Z,5.43
2022-08-28T22:11:55.705Z,7.90
2022-08-28T22:14:25.000Z,9.18
2022-08-28T22:16:51.973Z,6.38
2022-08-28T22:19:18.988Z,12.77
2022-08-28T22:22:04.538Z,7.43
2022-08-28T22:24:31.299Z,6.55
2022-08-28T22:26:58.025Z,8.20
2022-08-28T22:29:25.773Z,9.50
2022-08-28T22:31:52.838Z,6.30
2022-08-28T22:34:19.672Z,8.15
2022-08-28T22:36:46.409Z,6.30
2022-08-28T22:39:13.088Z,6.45
2022-08-28T22:41:40.325Z,6.53
2022-08-28T22:44:07.641Z,7.43
2022-08-28T22:46:34.605Z,7.43
2022-08-28T22:49:01.484Z,6.63
2022-08-28T22:51:28.202Z,7.35
2022-08-28T22:53:56.045Z,7.43
2022-08-28T22:56:22.765Z,8.43
2022-08-28T22:58:49.569Z,9.88
2022-08-28T23:01:20.075Z,6.60
2022-08-28T23:03:47.277Z,7.10
2022-08-28T23:06:14.155Z,7.78
2022-08-28T23:08:41.471Z,6.80
2022-08-28T23:11:08.627Z,7.95
2022-08-28T23:13:35.857Z,7.57
2022-08-28T23:16:03.765Z,9.10
2022-08-28T23:18:41.535Z,7.15
2022-08-28T23:21:19.449Z,9.32
2022-08-28T23:23:46.733Z,9.88
2022-08-28T23:26:15.816Z,6.68
2022-08-28T23:28:42.743Z,8.45
2022-08-28T23:31:10.107Z,8.65
2022-08-28T23:33:36.912Z,8.05
2022-08-28T23:36:04.305Z,10.18
2022-08-28T23:38:31.037Z,8.65
2022-08-28T23:40:58.535Z,8.05
2022-08-28T23:43:25.280Z,8.93
2022-08-28T23:45:52.773Z,7.10
2022-08-28T23:48:20.610Z,6.90
2022-08-28T23:50:47.574Z,7.90
2022-08-28T23:53:14.733Z,9.10
2022-08-28T23:55:43.818Z,8.07
2022-08-28T23:58:10.533Z,10.02
